M I D A S
Marine Information and Data Acquisition System
Tripno 1224 of the Zeeleeuw from 2007-03-05 08:13:01 to 2007-03-05 14:10:23
Back to CruiseResearch ActivitiesStationsMapUnderway DataData graphs

EquipmentUnitsComments
TimeDGPSUTC
LatitudeDGPSDM.mWGS84
LongitudeDGPSDM.mWGS84
SpeedMeteo Stationm/sRelative wind speed
DirectionMeteo StationdegRelative wind direction
TemperatureMeteo Stationdeg CelciusAir temperature
PressureMeteo StationPaAtmospheric pressure
HumidityMeteo Station%Relative humidity
Missing or incorrect values are displayed as -999
Metereological data collected by the RV Zeeleeuw from 2007-03-05 08:16:05 to 2007-03-05 14:20:24
Time Latitude Longitude Speed Direction Temperature Pressure Humidity
2007-03-05 08:17 51°13.619 2°56.019 8.5 41 5.8 101180 97
2007-03-05 08:18 51°13.647 2°55.925 4.9 24 5.8 101180 98
2007-03-05 08:19 51°13.675 2°55.846 5 34 5.8 101170 98
2007-03-05 08:20 51°13.694 2°55.787 3.8 39 5.9 101170 98
2007-03-05 08:21 51°13.703 2°55.775 4.2 19 6 101170 98
2007-03-05 08:22 51°13.701 2°55.754 5.6 24 6.1 101180 98
2007-03-05 08:23 51°13.698 2°55.744 3.9 28 6.1 101170 98
2007-03-05 08:24 51°13.714 2°55.745 5.8 28 6.1 101170 98
2007-03-05 08:25 51°13.774 2°55.689 6.4 320 6.2 101160 98
2007-03-05 08:26 51°13.885 2°55.605 8 315 6.2 101160 98
2007-03-05 08:27 51°14.008 2°55.512 4.7 317 6.3 101160 98
2007-03-05 08:28 51°14.13 2°55.419 4.4 20 6.3 101160 98
2007-03-05 08:29 51°14.241 2°55.304 13.3 22 6.4 101150 98
2007-03-05 08:30 51°14.333 2°55.146 12.4 20 6.4 101170 98
2007-03-05 08:31 51°14.447 2°54.998 13.7 22 6.5 101110 98
2007-03-05 08:32 51°14.585 2°54.886 14 25 6.5 101110 98
2007-03-05 08:33 51°14.718 2°54.754 11.3 22 6.6 101120 98
2007-03-05 08:34 51°14.87 2°54.611 12.3 19 6.7 101100 98
2007-03-05 08:35 51°15.041 2°54.436 14.3 25 6.7 101080 98
2007-03-05 08:36 51°15.216 2°54.255 14.5 23 6.8 101090 98
2007-03-05 08:37 51°15.391 2°54.077 15.4 22 6.7 101070 98
2007-03-05 08:38 51°15.579 2°53.891 16.2 24 6.7 101150 98
2007-03-05 08:39 51°15.759 2°53.709 14 22 6.8 101090 98
2007-03-05 08:40 51°15.942 2°53.526 14.6 21 6.7 101080 98
2007-03-05 08:41 51°16.122 2°53.338 11.8 21 6.7 101060 98
2007-03-05 08:42 51°16.305 2°53.148 12.5 23 6.7 101070 98
2007-03-05 08:43 51°16.486 2°52.975 11.3 247 6.7 101080 98
2007-03-05 08:44 51°16.689 2°52.872 10.2 25 6.7 101080 98
2007-03-05 08:45 51°16.881 2°52.75 11.1 21 6.7 101080 98
2007-03-05 08:46 51°17.074 2°52.626 12.1 24 6.7 101070 98
2007-03-05 08:47 51°17.27 2°52.501 13.5 20 6.8 101070 98
2007-03-05 08:48 51°17.46 2°52.375 12.7 21 6.8 101070 98
2007-03-05 08:49 51°17.657 2°52.246 12.9 248 6.9 101070 97
2007-03-05 08:50 51°17.844 2°52.119 14 23 6.9 101070 97
2007-03-05 08:51 51°18.03 2°51.98 14.4 24 6.9 101070 97
2007-03-05 08:52 51°18.215 2°51.835 14.6 22 7 101080 96
2007-03-05 08:53 51°18.402 2°51.684 15.5 251 7 101070 96
2007-03-05 08:54 51°18.589 2°51.533 16.8 23 7.1 101070 96
2007-03-05 08:55 51°18.73 2°51.401 15 24 7.1 101080 95
2007-03-05 08:56 51°18.859 2°51.275 12.4 25 7.2 101090 95
2007-03-05 08:57 51°18.987 2°51.149 15 249 7.2 101100 94
2007-03-05 08:58 51°19.115 2°51.024 14.1 22 7.3 101080 94
2007-03-05 08:59 51°19.24 2°50.897 13.4 20 7.3 101080 94
2007-03-05 09:00 51°19.301 2°50.81 13.8 247 7.3 101110 93
2007-03-05 09:01 51°19.304 2°50.802 16.6 258 7.3 101120 93
2007-03-05 09:02 51°19.301 2°50.812 15.4 259 7.3 101120 91
2007-03-05 09:03 51°19.293 2°50.82 12.1 265 7.3 101110 90
2007-03-05 09:04 51°19.285 2°50.825 8.6 266 7.4 101120 90
2007-03-05 09:05 51°19.278 2°50.83 11.6 268 7.5 101120 89
2007-03-05 09:06 51°19.271 2°50.833 7.3 264 7.4 101120 89
2007-03-05 09:07 51°19.265 2°50.837 11.8 264 7.4 101130 89
2007-03-05 09:08 51°19.259 2°50.844 7 264 7.4 101130 88
2007-03-05 09:09 51°19.252 2°50.849 9 262 7.5 101130 89
2007-03-05 09:10 51°19.244 2°50.855 8.9 262 7.5 101130 89
2007-03-05 09:11 51°19.237 2°50.86 10.3 264 7.4 101110 88
2007-03-05 09:12 51°19.23 2°50.865 8.7 267 7.4 101120 87
2007-03-05 09:13 51°19.223 2°50.872 12.1 270 7.4 101130 87
2007-03-05 09:14 51°19.214 2°50.879 9.9 264 7.5 101120 87
2007-03-05 09:15 51°19.222 2°50.873 7.6 265 7.4 101130 86
2007-03-05 09:16 51°19.279 2°50.882 10.9 25 7.5 101140 86
2007-03-05 09:17 51°19.332 2°50.967 8.7 23 7.5 101160 85
2007-03-05 09:18 51°19.373 2°51.063 9.4 21 7.6 101170 84
2007-03-05 09:19 51°19.407 2°51.141 12.7 26 7.6 101160 84
2007-03-05 09:20 51°19.438 2°51.218 9.3 21 7.6 101170 82
2007-03-05 09:21 51°19.467 2°51.294 7.9 27 7.7 101150 82
2007-03-05 09:22 51°19.496 2°51.365 8 22 7.8 101150 83
2007-03-05 09:23 51°19.524 2°51.437 9.3 24 7.7 101160 82
2007-03-05 09:24 51°19.552 2°51.514 10.8 27 7.7 101150 81
2007-03-05 09:25 51°19.581 2°51.589 10.9 24 7.7 101160 81
2007-03-05 09:26 51°19.611 2°51.666 8 19 7.6 101150 80
2007-03-05 09:27 51°19.641 2°51.736 11 19 7.6 101160 81
2007-03-05 09:28 51°19.672 2°51.807 15.1 23 7.6 101160 81
2007-03-05 09:29 51°19.701 2°51.885 13.3 26 7.6 101150 81
2007-03-05 09:30 51°19.733 2°51.959 9.8 21 7.6 101160 81
2007-03-05 09:31 51°19.764 2°52.032 13 25 7.7 101170 82
2007-03-05 09:32 51°19.798 2°52.105 12.3 24 7.7 101170 83
2007-03-05 09:33 51°19.833 2°52.177 10.2 24 7.6 101160 81
2007-03-05 09:34 51°19.866 2°52.248 14.7 21 7.6 101170 82
2007-03-05 09:35 51°19.899 2°52.322 13.6 26 7.6 101170 81
2007-03-05 09:36 51°19.931 2°52.394 13.5 22 7.6 101170 81
2007-03-05 09:37 51°19.964 2°52.469 14.1 24 7.6 101170 80
2007-03-05 09:38 51°19.997 2°52.542 13.4 23 7.6 101180 80
2007-03-05 09:39 51°20.031 2°52.615 7.6 25 7.7 101160 80
2007-03-05 09:40 51°20.068 2°52.684 10.2 23 7.7 101170 80
2007-03-05 09:41 51°20.101 2°52.755 8.7 21 7.7 101170 79
2007-03-05 09:42 51°20.135 2°52.827 14.3 20 7.7 101170 80
2007-03-05 09:43 51°20.167 2°52.9 14.7 25 7.7 101190 80
2007-03-05 09:44 51°20.198 2°52.975 14.1 23 7.7 101190 80
2007-03-05 09:45 51°20.228 2°53.049 10.7 21 7.7 101180 80
2007-03-05 09:46 51°20.261 2°53.121 11.1 27 7.7 101190 80
2007-03-05 09:47 51°20.292 2°53.197 13.8 23 7.7 101190 80
2007-03-05 09:48 51°20.326 2°53.271 8.9 24 7.6 101200 79
2007-03-05 09:49 51°20.36 2°53.343 8.5 21 7.6 101200 79
2007-03-05 09:50 51°20.392 2°53.415 11.6 24 7.7 101190 80
2007-03-05 09:51 51°20.421 2°53.494 12.2 22 7.7 101200 80
2007-03-05 09:52 51°20.436 2°53.579 9.7 34 7.7 101220 80
2007-03-05 09:53 51°20.435 2°53.663 14.5 33 7.7 101210 81
2007-03-05 09:54 51°20.423 2°53.74 13.9 29 7.7 101210 80
2007-03-05 09:55 51°20.401 2°53.799 14.9 24 7.7 101220 81
2007-03-05 09:56 51°20.379 2°53.839 16 17 7.7 101210 80
2007-03-05 09:57 51°20.358 2°53.871 12.7 17 7.6 101210 80
2007-03-05 09:58 51°20.338 2°53.897 13.9 14 7.7 101200 82
2007-03-05 09:59 51°20.317 2°53.929 13.8 14 7.7 101190 81
2007-03-05 10:00 51°20.279 2°53.97 14.1 -999 7.6 101150 82
2007-03-05 10:01 51°20.228 2°53.998 13.5 355 7.6 101150 81
2007-03-05 10:02 51°20.156 2°54.002 14.8 348 7.6 101170 82
2007-03-05 10:03 51°20.067 2°54.015 15.1 352 7.6 101150 82
2007-03-05 10:04 51°19.975 2°54.011 16.8 348 7.6 101160 82
2007-03-05 10:05 51°19.866 2°53.988 17.2 345 7.7 101170 82
2007-03-05 10:06 51°19.748 2°53.959 17.6 342 7.6 101180 82
2007-03-05 10:07 51°19.632 2°53.941 17.2 342 7.6 101160 81
2007-03-05 10:08 51°19.517 2°53.916 18.7 345 7.6 101160 82
2007-03-05 10:09 51°19.398 2°53.891 16.1 344 7.7 101180 82
2007-03-05 10:10 51°19.28 2°53.864 15.8 349 7.7 101190 83
2007-03-05 10:11 51°19.164 2°53.845 18.8 342 7.7 101150 81
2007-03-05 10:12 51°19.049 2°53.821 16.8 343 7.7 101170 81
2007-03-05 10:13 51°18.931 2°53.793 17.7 341 7.7 101180 81
2007-03-05 10:14 51°18.811 2°53.762 18 343 7.7 101180 81
2007-03-05 10:15 51°18.692 2°53.731 17.1 344 7.7 101160 81
2007-03-05 10:16 51°18.572 2°53.704 18.1 342 7.7 101170 82
2007-03-05 10:17 51°18.455 2°53.679 16.7 344 7.7 101150 81
2007-03-05 10:18 51°18.333 2°53.646 16.6 346 7.8 101170 82
2007-03-05 10:19 51°18.211 2°53.621 17.9 345 7.8 101170 81
2007-03-05 10:20 51°18.09 2°53.592 17.5 343 7.8 101160 81
2007-03-05 10:21 51°17.955 2°53.545 19 340 7.9 101180 81
2007-03-05 10:22 51°17.811 2°53.493 18.6 339 7.8 101180 80
2007-03-05 10:23 51°17.666 2°53.441 16.9 337 7.8 101190 79
2007-03-05 10:24 51°17.523 2°53.393 17.9 337 7.8 101180 78
2007-03-05 10:25 51°17.374 2°53.343 16.3 339 7.8 101200 78
2007-03-05 10:26 51°17.226 2°53.293 15.3 341 7.7 101170 77
2007-03-05 10:27 51°17.077 2°53.243 16.6 345 7.8 101190 75
2007-03-05 10:28 51°16.93 2°53.195 18.3 342 7.9 101200 74
2007-03-05 10:29 51°16.779 2°53.149 17 346 7.9 101190 72
2007-03-05 10:30 51°16.631 2°53.106 19.3 348 8.1 101190 72
2007-03-05 10:31 51°16.484 2°53.063 17 345 8 101170 71
2007-03-05 10:32 51°16.337 2°53.016 16.8 345 8.1 101180 71
2007-03-05 10:33 51°16.192 2°52.977 17.5 349 8.1 101210 72
2007-03-05 10:34 51°16.043 2°52.971 18.5 353 8.1 101170 71
2007-03-05 10:35 51°15.894 2°52.998 18.9 355 8.1 101200 70
2007-03-05 10:36 51°15.741 2°53.025 16.6 350 8 101190 70
2007-03-05 10:37 51°15.591 2°53.064 17.1 354 8 101200 71
2007-03-05 10:38 51°15.412 2°53.11 18.4 352 8 101220 71
2007-03-05 10:39 51°15.203 2°53.153 17.4 349 7.9 101200 70
2007-03-05 10:40 51°14.991 2°53.194 16.8 349 7.9 101210 70
2007-03-05 10:41 51°14.775 2°53.242 17.8 349 7.8 101210 70
2007-03-05 10:42 51°14.568 2°53.295 15.5 346 7.8 101210 69
2007-03-05 10:43 51°14.358 2°53.348 18.1 348 7.8 101220 70
2007-03-05 10:44 51°14.157 2°53.311 17.8 330 7.8 101250 70
2007-03-05 10:45 51°14.025 2°53.078 15.9 324 7.8 101230 70
2007-03-05 10:46 51°13.924 2°52.802 16 327 7.8 101220 71
2007-03-05 10:47 51°13.799 2°52.548 16.5 330 7.8 101250 72
2007-03-05 10:48 51°13.672 2°52.298 15.9 324 7.8 101220 72
2007-03-05 10:49 51°13.543 2°52.048 16.5 329 7.9 101230 72
2007-03-05 10:50 51°13.414 2°51.799 18.5 328 7.9 101240 73
2007-03-05 10:51 51°13.304 2°51.53 17.1 324 8 101240 73
2007-03-05 10:52 51°13.201 2°51.257 16.2 324 8 101220 73
2007-03-05 10:53 51°13.096 2°50.987 16.8 323 8.1 101230 74
2007-03-05 10:54 51°12.997 2°50.712 17.9 323 8.1 101230 73
2007-03-05 10:55 51°12.897 2°50.429 16.6 324 8.1 101240 74
2007-03-05 10:56 51°12.802 2°50.152 16.5 326 8.1 101240 75
2007-03-05 10:57 51°12.704 2°49.872 18.3 327 8.1 101250 76
2007-03-05 10:58 51°12.607 2°49.595 19 327 8.1 101210 75
2007-03-05 10:59 51°12.516 2°49.314 18.3 328 8.2 101230 74
2007-03-05 11:00 51°12.424 2°49.027 17.3 330 8.3 101240 74
2007-03-05 11:01 51°12.33 2°48.757 17.5 329 8.3 101230 74
2007-03-05 11:02 51°12.22 2°48.487 21.3 331 8.3 101250 74
2007-03-05 11:03 51°12.115 2°48.227 18.6 330 8.4 101260 73
2007-03-05 11:04 51°12.019 2°47.953 20.9 329 8.4 101260 74
2007-03-05 11:05 51°11.924 2°47.679 18 329 8.5 101240 74
2007-03-05 11:06 51°11.831 2°47.401 20.1 326 8.5 101270 73
2007-03-05 11:07 51°11.741 2°47.13 18.4 328 8.6 101230 74
2007-03-05 11:08 51°11.652 2°46.856 18.7 327 8.7 101250 74
2007-03-05 11:09 51°11.565 2°46.577 18.2 328 8.7 101280 73
2007-03-05 11:10 51°11.475 2°46.31 18.7 328 8.7 101260 74
2007-03-05 11:11 51°11.385 2°46.035 20.9 327 8.7 101250 73
2007-03-05 11:12 51°11.302 2°45.772 19 329 8.8 101250 73
2007-03-05 11:13 51°11.221 2°45.52 19.4 329 8.8 101240 72
2007-03-05 11:14 51°11.144 2°45.285 20.5 327 8.8 101270 72
2007-03-05 11:15 51°11.07 2°45.05 21.7 325 8.8 101280 73
2007-03-05 11:16 51°10.998 2°44.815 17 325 8.7 101250 72
2007-03-05 11:17 51°10.926 2°44.578 17.2 328 8.7 101300 73
2007-03-05 11:18 51°10.857 2°44.332 18.3 330 8.7 101280 73
2007-03-05 11:19 51°10.793 2°44.092 16.9 328 8.7 101280 72
2007-03-05 11:20 51°10.73 2°43.846 18.7 328 8.7 101300 74
2007-03-05 11:21 51°10.669 2°43.598 18.4 322 8.8 101280 74
2007-03-05 11:22 51°10.614 2°43.342 18.3 323 8.8 101250 73
2007-03-05 11:23 51°10.561 2°43.096 16.9 324 8.9 101240 73
2007-03-05 11:24 51°10.506 2°42.849 21 320 9 101290 73
2007-03-05 11:25 51°10.45 2°42.598 17.7 323 9 101270 72
2007-03-05 11:26 51°10.396 2°42.355 20.5 325 9 101240 72
2007-03-05 11:27 51°10.344 2°42.127 19.3 326 9.1 101290 71
2007-03-05 11:28 51°10.291 2°41.892 18 323 9.1 101280 72
2007-03-05 11:29 51°10.237 2°41.653 16.3 323 9.1 101270 72
2007-03-05 11:30 51°10.185 2°41.421 19.3 322 9.1 101280 72
2007-03-05 11:31 51°10.132 2°41.185 20.8 324 9.1 101280 71
2007-03-05 11:32 51°10.078 2°40.95 16.6 323 9.2 101300 71
2007-03-05 11:33 51°10.035 2°40.709 18.4 320 9.2 101270 73
2007-03-05 11:34 51°10.004 2°40.458 20.5 320 9.2 101310 73
2007-03-05 11:35 51°9.975 2°40.218 18.1 321 9.1 101290 72
2007-03-05 11:36 51°10.006 2°39.987 17.4 21 9.2 101290 72
2007-03-05 11:37 51°10.056 2°39.768 15.1 22 9.2 101290 71
2007-03-05 11:38 51°10.108 2°39.554 19.2 25 9.2 101280 72
2007-03-05 11:39 51°10.161 2°39.342 15.7 23 9.2 101310 73
2007-03-05 11:40 51°10.206 2°39.204 17.5 22 9.2 101310 73
2007-03-05 11:41 51°10.241 2°39.163 13.4 21 9.2 101370 73
2007-03-05 11:42 51°10.27 2°39.186 11.9 22 9.2 101380 73
2007-03-05 11:43 51°10.299 2°39.236 11.6 21 9.3 101340 74
2007-03-05 11:44 51°10.327 2°39.295 12.8 249 9.3 101330 74
2007-03-05 11:45 51°10.355 2°39.363 16.6 256 9.2 101320 73
2007-03-05 11:46 51°10.38 2°39.438 10.9 261 9.3 101350 73
2007-03-05 11:47 51°10.402 2°39.512 8.8 264 9.3 101330 73
2007-03-05 11:48 51°10.423 2°39.587 12.7 270 9.2 101340 72
2007-03-05 11:49 51°10.445 2°39.662 9.5 261 9.3 101340 73
2007-03-05 11:50 51°10.473 2°39.724 13.8 19 9.3 101360 74
2007-03-05 11:51 51°10.503 2°39.709 12.1 324 9.3 101330 73
2007-03-05 11:52 51°10.507 2°39.702 17 326 9.3 101350 72
2007-03-05 11:53 51°10.509 2°39.701 12.8 323 9.4 101350 67
2007-03-05 11:54 51°10.513 2°39.697 16 326 9.5 101350 66
2007-03-05 11:55 51°10.518 2°39.702 15.1 330 9.5 101360 66
2007-03-05 11:56 51°10.51 2°39.707 14.5 340 9.5 101360 66
2007-03-05 11:57 51°10.501 2°39.715 12.5 331 9.5 101370 66
2007-03-05 11:58 51°10.501 2°39.71 12.4 323 9.5 101360 67
2007-03-05 11:59 51°10.506 2°39.701 13.6 330 9.5 101350 68
2007-03-05 12:00 51°10.511 2°39.717 11.4 328 9.5 101370 69
2007-03-05 12:01 51°10.518 2°39.745 10.6 329 9.5 101370 69
2007-03-05 12:02 51°10.527 2°39.779 12.5 331 9.5 101370 69
2007-03-05 12:03 51°10.536 2°39.822 12.3 333 9.5 101370 68
2007-03-05 12:04 51°10.544 2°39.868 12.5 336 9.5 101370 66
2007-03-05 12:05 51°10.552 2°39.92 13.4 335 9.5 101370 65
2007-03-05 12:06 51°10.56 2°39.977 12.4 342 9.5 101370 66
2007-03-05 12:07 51°10.566 2°40.039 12.8 349 9.5 101360 66
2007-03-05 12:08 51°10.556 2°40.075 12.1 328 9.5 101360 68
2007-03-05 12:09 51°10.571 2°40.074 12.8 24 9.4 101350 68
2007-03-05 12:10 51°10.6 2°40.084 12.4 315 9.5 101360 68
2007-03-05 12:11 51°10.624 2°40.097 12.5 319 9.4 101370 67
2007-03-05 12:12 51°10.647 2°40.138 11.9 26 9.4 101350 66
2007-03-05 12:13 51°10.675 2°40.202 12.6 24 9.5 101350 65
2007-03-05 12:14 51°10.739 2°40.202 15.4 24 9.4 101340 66
2007-03-05 12:15 51°10.827 2°40.179 12.6 254 9.5 101340 66
2007-03-05 12:16 51°10.927 2°40.302 12.2 28 9.5 101380 67
2007-03-05 12:17 51°11.03 2°40.442 6.3 266 9.4 101380 66
2007-03-05 12:18 51°11.104 2°40.539 12.7 30 9.4 101380 67
2007-03-05 12:19 51°11.154 2°40.629 14.2 24 9.4 101360 67
2007-03-05 12:20 51°11.194 2°40.715 11.1 26 9.5 101380 68
2007-03-05 12:21 51°11.231 2°40.803 16 270 9.4 101360 68
2007-03-05 12:22 51°11.268 2°40.89 15 262 9.1 101360 67
2007-03-05 12:23 51°11.303 2°40.97 15.9 259 8.9 101350 65
2007-03-05 12:24 51°11.334 2°41.044 13.4 256 8.8 101370 63
2007-03-05 12:25 51°11.368 2°41.117 12.2 264 8.8 101360 64
2007-03-05 12:26 51°11.426 2°41.207 11.7 23 9 101370 63
2007-03-05 12:27 51°11.467 2°41.35 14.6 20 9 101400 64
2007-03-05 12:28 51°11.466 2°41.497 13.5 32 9.1 101410 64
2007-03-05 12:29 51°11.442 2°41.609 15.8 10 9.1 101410 66
2007-03-05 12:30 51°11.412 2°41.661 14.8 356 9.1 101370 67
2007-03-05 12:31 51°11.384 2°41.67 14.1 335 9.1 101360 68
2007-03-05 12:32 51°11.345 2°41.608 12.4 338 9.1 101360 69
2007-03-05 12:33 51°11.302 2°41.567 16.3 337 9.2 101360 70
2007-03-05 12:34 51°11.267 2°41.515 17.1 337 9.3 101360 68
2007-03-05 12:35 51°11.233 2°41.458 14.3 334 9.4 101360 67
2007-03-05 12:36 51°11.198 2°41.393 13.4 336 9.4 101370 68
2007-03-05 12:37 51°11.164 2°41.328 14.1 335 9.4 101370 68
2007-03-05 12:38 51°11.132 2°41.267 14.9 335 9.4 101360 68
2007-03-05 12:39 51°11.097 2°41.2 13.5 335 9.5 101370 67
2007-03-05 12:40 51°11.061 2°41.134 13.8 336 9.5 101380 68
2007-03-05 12:41 51°11.027 2°41.068 13.4 335 9.5 101380 68
2007-03-05 12:42 51°10.993 2°41.004 16.6 333 9.5 101380 68
2007-03-05 12:43 51°10.958 2°40.938 14.1 334 9.6 101370 67
2007-03-05 12:44 51°10.924 2°40.873 14.2 333 9.6 101380 68
2007-03-05 12:45 51°10.889 2°40.807 12.8 331 9.6 101380 68
2007-03-05 12:46 51°10.855 2°40.739 17.8 329 9.7 101380 64
2007-03-05 12:47 51°10.822 2°40.668 15.6 330 9.7 101380 63
2007-03-05 12:48 51°10.782 2°40.606 15.5 334 9.8 101390 63
2007-03-05 12:49 51°10.735 2°40.556 17 336 9.8 101380 65
2007-03-05 12:50 51°10.687 2°40.502 16 335 9.8 101360 66
2007-03-05 12:51 51°10.648 2°40.461 17.7 340 9.8 101370 66
2007-03-05 12:52 51°10.621 2°40.448 13.9 339 9.8 101380 65
2007-03-05 12:53 51°10.6 2°40.436 11.8 331 9.8 101380 66
2007-03-05 12:54 51°10.608 2°40.409 14.6 23 9.8 101380 68
2007-03-05 12:55 51°10.644 2°40.425 12 20 9.7 101360 66
2007-03-05 12:56 51°10.674 2°40.469 10.5 250 9.8 101360 67
2007-03-05 12:57 51°10.701 2°40.525 13.5 256 9.8 101370 67
2007-03-05 12:58 51°10.725 2°40.592 9 266 9.8 101380 65
2007-03-05 12:59 51°10.748 2°40.66 8.4 262 9.8 101380 67
2007-03-05 13:00 51°10.769 2°40.73 9.2 267 9.8 101390 67
2007-03-05 13:01 51°10.797 2°40.796 13.7 264 9.8 101390 65
2007-03-05 13:02 51°10.852 2°40.847 11.2 269 9.8 101380 64
2007-03-05 13:03 51°10.92 2°40.972 12.5 43 9.7 101410 63
2007-03-05 13:04 51°10.944 2°41.16 12.2 40 9.8 101430 64
2007-03-05 13:05 51°10.97 2°41.373 8.5 39 9.8 101420 65
2007-03-05 13:06 51°11 2°41.594 10.3 25 9.8 101430 66
2007-03-05 13:07 51°11.026 2°41.816 11.6 38 9.7 101420 65
2007-03-05 13:08 51°11.046 2°42.038 11.7 35 9.8 101420 66
2007-03-05 13:09 51°11.066 2°42.257 9.9 35 9.8 101420 66
2007-03-05 13:10 51°11.089 2°42.478 10 38 9.8 101400 66
2007-03-05 13:11 51°11.112 2°42.701 8.1 34 9.8 101420 68
2007-03-05 13:12 51°11.136 2°42.924 10.7 33 9.7 101410 67
2007-03-05 13:13 51°11.157 2°43.145 13.2 35 9.7 101410 65
2007-03-05 13:14 51°11.178 2°43.364 11 39 9.8 101420 66
2007-03-05 13:15 51°11.206 2°43.581 9.7 39 9.8 101410 66
2007-03-05 13:16 51°11.24 2°43.799 10.5 38 9.8 101420 66
2007-03-05 13:17 51°11.277 2°44.016 11.2 36 9.7 101420 67
2007-03-05 13:18 51°11.313 2°44.234 11.6 42 9.7 101420 67
2007-03-05 13:19 51°11.347 2°44.45 9.1 44 9.7 101430 67
2007-03-05 13:20 51°11.385 2°44.664 8.1 44 9.7 101410 68
2007-03-05 13:21 51°11.421 2°44.878 9.8 40 9.6 101390 67
2007-03-05 13:22 51°11.462 2°45.092 10.7 19 9.7 101400 67
2007-03-05 13:23 51°11.519 2°45.303 11.6 26 9.6 101420 67
2007-03-05 13:24 51°11.561 2°45.52 8.4 44 9.7 101410 66
2007-03-05 13:25 51°11.601 2°45.736 9.9 45 9.7 101410 68
2007-03-05 13:26 51°11.643 2°45.954 9.6 20 9.7 101410 68
2007-03-05 13:27 51°11.693 2°46.164 11.7 27 9.7 101420 67
2007-03-05 13:28 51°11.749 2°46.38 11.2 24 9.8 101420 66
2007-03-05 13:29 51°11.805 2°46.598 10.3 18 9.8 101420 66
2007-03-05 13:30 51°11.859 2°46.816 8.9 19 9.8 101420 67
2007-03-05 13:31 51°11.914 2°47.035 7.3 24 9.8 101420 67
2007-03-05 13:32 51°11.973 2°47.247 8.7 24 9.8 101430 66
2007-03-05 13:33 51°12.033 2°47.456 8.1 19 9.8 101420 66
2007-03-05 13:34 51°12.096 2°47.66 8.2 27 9.8 101430 66
2007-03-05 13:35 51°12.161 2°47.86 8.2 24 9.8 101430 65
2007-03-05 13:36 51°12.228 2°48.055 5.3 20 9.9 101420 62
2007-03-05 13:37 51°12.304 2°48.242 8.9 22 10 101420 63
2007-03-05 13:38 51°12.375 2°48.434 10.8 27 10 101450 61
2007-03-05 13:39 51°12.446 2°48.627 6.6 24 10.1 101420 62
2007-03-05 13:40 51°12.52 2°48.822 6.7 27 10 101420 63
2007-03-05 13:41 51°12.592 2°49.016 8.6 22 10 101430 61
2007-03-05 13:42 51°12.663 2°49.211 7.7 21 10.1 101430 61
2007-03-05 13:43 51°12.738 2°49.402 9.7 25 10 101430 61
2007-03-05 13:44 51°12.81 2°49.594 11.3 22 10.1 101440 62
2007-03-05 13:45 51°12.887 2°49.788 7.4 24 10 101430 61
2007-03-05 13:46 51°12.962 2°49.984 8.6 21 10 101430 62
2007-03-05 13:47 51°13.036 2°50.178 9 26 10 101430 62
2007-03-05 13:48 51°13.111 2°50.373 5.3 21 10 101440 61
2007-03-05 13:49 51°13.189 2°50.566 10.7 22 10 101430 63
2007-03-05 13:50 51°13.267 2°50.762 7.5 25 10 101430 62
2007-03-05 13:51 51°13.343 2°50.959 9.3 20 10 101430 64
2007-03-05 13:52 51°13.42 2°51.156 10.4 23 10 101440 63
2007-03-05 13:53 51°13.497 2°51.353 7.5 25 10 101430 65
2007-03-05 13:54 51°13.574 2°51.55 12 22 10 101440 65
2007-03-05 13:55 51°13.649 2°51.746 9.3 22 9.9 101440 65
2007-03-05 13:56 51°13.723 2°51.944 9.4 20 9.9 101440 64
2007-03-05 13:57 51°13.798 2°52.144 6.9 23 9.9 101440 64
2007-03-05 13:58 51°13.869 2°52.346 10 20 10 101430 65
2007-03-05 13:59 51°13.937 2°52.552 7.3 23 9.9 101450 65
2007-03-05 14:00 51°14.006 2°52.759 9.3 25 9.9 101430 65
2007-03-05 14:01 51°14.077 2°52.965 8.7 23 9.9 101440 65
2007-03-05 14:02 51°14.147 2°53.169 9.8 26 9.9 101440 65
2007-03-05 14:03 51°14.214 2°53.372 9.9 45 9.9 101440 66
2007-03-05 14:04 51°14.272 2°53.577 11.4 22 9.9 101440 66
2007-03-05 14:05 51°14.331 2°53.785 9.6 24 9.9 101440 65
2007-03-05 14:06 51°14.384 2°54.004 9 26 9.9 101430 65
2007-03-05 14:07 51°14.435 2°54.256 10.3 37 10 101430 65
2007-03-05 14:08 51°14.463 2°54.558 11.2 27 10 101420 67
2007-03-05 14:09 51°14.422 2°54.847 16 20 9.9 101380 65
2007-03-05 14:10 51°14.343 2°55.108 12.4 22 10 101400 65
2007-03-05 14:11 51°14.231 2°55.311 11.5 357 10.1 101410 64
2007-03-05 14:12 51°14.094 2°55.433 14.2 356 10.3 101440 62
2007-03-05 14:13 51°13.969 2°55.529 9.5 345 10.5 101450 61
2007-03-05 14:14 51°13.872 2°55.602 9 326 10.5 101440 59
2007-03-05 14:15 51°13.791 2°55.673 12.6 1 10.6 101440 58
2007-03-05 14:16 51°13.718 2°55.777 11.3 2 10.6 101430 63
2007-03-05 14:17 51°13.656 2°55.902 6.7 6 10.6 101460 60
2007-03-05 14:18 51°13.611 2°56.006 3.8 41 10.6 101460 59
2007-03-05 14:19 51°13.597 2°56.082 11.2 21 10.6 101470 59
2007-03-05 14:20 51°13.597 2°56.095 9.3 30 10.7 101470 58